sensor_id;sensor_type;location;lat;lon;timestamp;P1;durP1;ratioP1;P2;durP2;ratioP2
18776;SDS011;9517;51.174;4.160;2023-09-19T00:00:19;15.73;;;2.23;;
18776;SDS011;9517;51.174;4.160;2023-09-19T00:02:51;15.17;;;1.73;;
18776;SDS011;9517;51.174;4.160;2023-09-19T00:05:19;14.77;;;2.07;;
18776;SDS011;9517;51.174;4.160;2023-09-19T00:07:49;14.00;;;1.77;;
18776;SDS011;9517;51.174;4.160;2023-09-19T00:10:19;10.03;;;1.77;;
18776;SDS011;9517;51.174;4.160;2023-09-19T00:12:47;11.90;;;2.33;;
18776;SDS011;9517;51.174;4.160;2023-09-19T00:15:16;11.57;;;1.67;;
18776;SDS011;9517;51.174;4.160;2023-09-19T00:17:44;10.57;;;1.67;;
18776;SDS011;9517;51.174;4.160;2023-09-19T00:20:12;15.13;;;2.07;;
18776;SDS011;9517;51.174;4.160;2023-09-19T00:22:42;10.07;;;1.67;;
18776;SDS011;9517;51.174;4.160;2023-09-19T00:25:09;11.57;;;1.73;;
18776;SDS011;9517;51.174;4.160;2023-09-19T00:27:37;10.80;;;2.13;;
18776;SDS011;9517;51.174;4.160;2023-09-19T00:30:10;11.77;;;1.57;;
18776;SDS011;9517;51.174;4.160;2023-09-19T00:32:40;11.87;;;1.93;;
18776;SDS011;9517;51.174;4.160;2023-09-19T00:35:07;9.03;;;1.50;;
18776;SDS011;9517;51.174;4.160;2023-09-19T00:37:35;14.17;;;2.30;;
18776;SDS011;9517;51.174;4.160;2023-09-19T00:40:05;14.53;;;2.40;;
18776;SDS011;9517;51.174;4.160;2023-09-19T00:42:36;12.97;;;1.93;;
18776;SDS011;9517;51.174;4.160;2023-09-19T00:45:05;11.63;;;1.87;;
18776;SDS011;9517;51.174;4.160;2023-09-19T00:47:36;10.37;;;1.87;;
18776;SDS011;9517;51.174;4.160;2023-09-19T00:50:04;11.60;;;2.53;;
18776;SDS011;9517;51.174;4.160;2023-09-19T00:52:33;11.13;;;1.80;;
18776;SDS011;9517;51.174;4.160;2023-09-19T00:55:01;10.80;;;1.93;;
18776;SDS011;9517;51.174;4.160;2023-09-19T00:57:29;14.03;;;2.27;;
18776;SDS011;9517;51.174;4.160;2023-09-19T00:59:58;11.47;;;1.93;;
18776;SDS011;9517;51.174;4.160;2023-09-19T01:02:30;10.50;;;1.80;;
18776;SDS011;9517;51.174;4.160;2023-09-19T01:04:59;12.23;;;1.63;;
18776;SDS011;9517;51.174;4.160;2023-09-19T01:07:29;14.10;;;2.13;;
18776;SDS011;9517;51.174;4.160;2023-09-19T01:09:59;12.30;;;2.10;;
18776;SDS011;9517;51.174;4.160;2023-09-19T01:12:30;14.60;;;1.93;;
18776;SDS011;9517;51.174;4.160;2023-09-19T01:15:07;9.27;;;2.00;;
18776;SDS011;9517;51.174;4.160;2023-09-19T01:17:43;11.63;;;1.67;;
18776;SDS011;9517;51.174;4.160;2023-09-19T01:20:25;13.30;;;2.03;;
18776;SDS011;9517;51.174;4.160;2023-09-19T01:23:01;9.83;;;2.37;;
18776;SDS011;9517;51.174;4.160;2023-09-19T01:28:45;10.03;;;1.40;;
18776;SDS011;9517;51.174;4.160;2023-09-19T01:31:24;10.37;;;1.77;;
18776;SDS011;9517;51.174;4.160;2023-09-19T01:33:55;11.87;;;2.27;;
18776;SDS011;9517;51.174;4.160;2023-09-19T01:36:25;11.13;;;2.13;;
18776;SDS011;9517;51.174;4.160;2023-09-19T01:38:54;8.80;;;1.97;;
18776;SDS011;9517;51.174;4.160;2023-09-19T01:41:25;13.40;;;2.57;;
18776;SDS011;9517;51.174;4.160;2023-09-19T01:44:02;10.87;;;1.90;;
18776;SDS011;9517;51.174;4.160;2023-09-19T01:46:38;10.33;;;1.93;;
18776;SDS011;9517;51.174;4.160;2023-09-19T01:49:12;11.17;;;1.80;;
18776;SDS011;9517;51.174;4.160;2023-09-19T01:51:51;10.20;;;2.10;;
18776;SDS011;9517;51.174;4.160;2023-09-19T01:54:26;13.10;;;2.10;;
18776;SDS011;9517;51.174;4.160;2023-09-19T01:57:05;15.17;;;2.60;;
18776;SDS011;9517;51.174;4.160;2023-09-19T01:59:48;12.03;;;2.00;;
18776;SDS011;9517;51.174;4.160;2023-09-19T02:02:27;9.80;;;1.90;;
18776;SDS011;9517;51.174;4.160;2023-09-19T02:04:56;9.23;;;1.77;;
18776;SDS011;9517;51.174;4.160;2023-09-19T02:07:23;9.50;;;1.90;;
18776;SDS011;9517;51.174;4.160;2023-09-19T02:09:52;11.13;;;1.90;;
18776;SDS011;9517;51.174;4.160;2023-09-19T02:12:20;8.90;;;1.93;;
18776;SDS011;9517;51.174;4.160;2023-09-19T02:14:48;9.50;;;2.23;;
18776;SDS011;9517;51.174;4.160;2023-09-19T02:17:15;12.80;;;1.90;;
18776;SDS011;9517;51.174;4.160;2023-09-19T02:19:44;18.30;;;2.47;;
18776;SDS011;9517;51.174;4.160;2023-09-19T02:22:12;12.57;;;2.30;;
18776;SDS011;9517;51.174;4.160;2023-09-19T02:24:39;10.67;;;1.67;;
18776;SDS011;9517;51.174;4.160;2023-09-19T02:27:06;13.27;;;2.27;;
18776;SDS011;9517;51.174;4.160;2023-09-19T02:29:33;12.03;;;2.07;;
18776;SDS011;9517;51.174;4.160;2023-09-19T02:32:01;10.03;;;1.87;;
18776;SDS011;9517;51.174;4.160;2023-09-19T02:34:28;17.63;;;2.23;;
18776;SDS011;9517;51.174;4.160;2023-09-19T02:36:57;16.47;;;2.07;;
18776;SDS011;9517;51.174;4.160;2023-09-19T02:39:25;12.20;;;2.33;;
18776;SDS011;9517;51.174;4.160;2023-09-19T02:41:53;16.57;;;2.33;;
18776;SDS011;9517;51.174;4.160;2023-09-19T02:44:20;14.50;;;1.97;;
18776;SDS011;9517;51.174;4.160;2023-09-19T02:46:48;11.53;;;2.03;;
18776;SDS011;9517;51.174;4.160;2023-09-19T02:49:16;11.20;;;1.90;;
18776;SDS011;9517;51.174;4.160;2023-09-19T02:51:44;11.33;;;2.00;;
18776;SDS011;9517;51.174;4.160;2023-09-19T02:54:14;14.67;;;2.30;;
18776;SDS011;9517;51.174;4.160;2023-09-19T02:56:42;16.27;;;2.03;;
18776;SDS011;9517;51.174;4.160;2023-09-19T02:59:10;14.47;;;2.10;;
18776;SDS011;9517;51.174;4.160;2023-09-19T03:01:37;12.83;;;2.07;;
18776;SDS011;9517;51.174;4.160;2023-09-19T03:04:05;12.50;;;1.83;;
18776;SDS011;9517;51.174;4.160;2023-09-19T03:06:35;12.53;;;1.80;;
18776;SDS011;9517;51.174;4.160;2023-09-19T03:09:03;11.80;;;1.80;;
18776;SDS011;9517;51.174;4.160;2023-09-19T03:11:40;16.67;;;1.93;;
18776;SDS011;9517;51.174;4.160;2023-09-19T03:14:07;10.70;;;2.03;;
18776;SDS011;9517;51.174;4.160;2023-09-19T03:16:36;11.93;;;1.90;;
18776;SDS011;9517;51.174;4.160;2023-09-19T03:19:03;11.87;;;2.43;;
18776;SDS011;9517;51.174;4.160;2023-09-19T03:21:31;10.27;;;1.77;;
18776;SDS011;9517;51.174;4.160;2023-09-19T03:23:58;15.17;;;2.47;;
18776;SDS011;9517;51.174;4.160;2023-09-19T03:26:25;12.97;;;1.97;;
18776;SDS011;9517;51.174;4.160;2023-09-19T03:28:54;12.27;;;1.97;;
18776;SDS011;9517;51.174;4.160;2023-09-19T03:31:22;10.97;;;2.17;;
18776;SDS011;9517;51.174;4.160;2023-09-19T03:33:49;13.20;;;2.27;;
18776;SDS011;9517;51.174;4.160;2023-09-19T03:36:16;15.97;;;2.30;;
18776;SDS011;9517;51.174;4.160;2023-09-19T03:38:44;11.00;;;2.00;;
18776;SDS011;9517;51.174;4.160;2023-09-19T03:41:11;9.10;;;1.67;;
18776;SDS011;9517;51.174;4.160;2023-09-19T03:43:42;13.73;;;1.90;;
18776;SDS011;9517;51.174;4.160;2023-09-19T03:46:11;5.17;;;1.53;;
18776;SDS011;9517;51.174;4.160;2023-09-19T03:48:40;12.37;;;2.20;;
18776;SDS011;9517;51.174;4.160;2023-09-19T03:51:07;13.47;;;1.80;;
18776;SDS011;9517;51.174;4.160;2023-09-19T03:53:35;13.97;;;2.20;;
18776;SDS011;9517;51.174;4.160;2023-09-19T03:56:03;12.17;;;1.90;;
18776;SDS011;9517;51.174;4.160;2023-09-19T03:58:30;16.33;;;2.33;;
18776;SDS011;9517;51.174;4.160;2023-09-19T04:00:59;12.47;;;1.90;;
18776;SDS011;9517;51.174;4.160;2023-09-19T04:03:27;14.57;;;2.20;;
18776;SDS011;9517;51.174;4.160;2023-09-19T04:06:00;11.97;;;2.10;;
18776;SDS011;9517;51.174;4.160;2023-09-19T04:08:27;8.10;;;1.87;;
18776;SDS011;9517;51.174;4.160;2023-09-19T04:10:55;10.70;;;2.17;;
18776;SDS011;9517;51.174;4.160;2023-09-19T04:13:22;12.13;;;1.70;;
18776;SDS011;9517;51.174;4.160;2023-09-19T04:15:49;9.33;;;1.80;;
18776;SDS011;9517;51.174;4.160;2023-09-19T04:18:16;13.57;;;1.80;;
18776;SDS011;9517;51.174;4.160;2023-09-19T04:20:48;12.13;;;1.90;;
18776;SDS011;9517;51.174;4.160;2023-09-19T04:23:16;10.00;;;1.77;;
18776;SDS011;9517;51.174;4.160;2023-09-19T04:25:45;11.80;;;2.07;;
18776;SDS011;9517;51.174;4.160;2023-09-19T04:28:15;18.30;;;2.27;;
18776;SDS011;9517;51.174;4.160;2023-09-19T04:30:42;8.70;;;1.70;;
18776;SDS011;9517;51.174;4.160;2023-09-19T04:33:10;12.33;;;2.23;;
18776;SDS011;9517;51.174;4.160;2023-09-19T04:35:39;16.10;;;2.20;;
18776;SDS011;9517;51.174;4.160;2023-09-19T04:38:12;15.10;;;2.13;;
18776;SDS011;9517;51.174;4.160;2023-09-19T04:40:46;16.83;;;1.87;;
18776;SDS011;9517;51.174;4.160;2023-09-19T04:43:19;17.03;;;2.50;;
18776;SDS011;9517;51.174;4.160;2023-09-19T04:45:50;16.23;;;2.27;;
18776;SDS011;9517;51.174;4.160;2023-09-19T04:48:20;15.90;;;2.17;;
18776;SDS011;9517;51.174;4.160;2023-09-19T04:50:50;15.03;;;2.20;;
18776;SDS011;9517;51.174;4.160;2023-09-19T04:53:20;14.10;;;2.33;;
18776;SDS011;9517;51.174;4.160;2023-09-19T04:55:49;11.83;;;2.40;;
18776;SDS011;9517;51.174;4.160;2023-09-19T04:58:21;12.40;;;2.10;;
18776;SDS011;9517;51.174;4.160;2023-09-19T05:03:04;16.17;;;2.53;;
18776;SDS011;9517;51.174;4.160;2023-09-19T05:07:32;16.27;;;2.03;;
18776;SDS011;9517;51.174;4.160;2023-09-19T05:10:02;13.77;;;2.63;;
18776;SDS011;9517;51.174;4.160;2023-09-19T05:12:32;12.50;;;1.73;;
18776;SDS011;9517;51.174;4.160;2023-09-19T05:15:03;14.97;;;2.40;;
18776;SDS011;9517;51.174;4.160;2023-09-19T05:17:32;12.70;;;2.30;;
18776;SDS011;9517;51.174;4.160;2023-09-19T05:19:59;13.20;;;1.93;;
18776;SDS011;9517;51.174;4.160;2023-09-19T05:22:30;11.23;;;2.10;;
18776;SDS011;9517;51.174;4.160;2023-09-19T05:24:58;16.43;;;2.33;;
18776;SDS011;9517;51.174;4.160;2023-09-19T05:27:26;13.67;;;2.20;;
18776;SDS011;9517;51.174;4.160;2023-09-19T05:29:54;15.30;;;2.60;;
18776;SDS011;9517;51.174;4.160;2023-09-19T05:32:21;16.80;;;2.67;;
18776;SDS011;9517;51.174;4.160;2023-09-19T05:34:48;16.50;;;2.00;;
18776;SDS011;9517;51.174;4.160;2023-09-19T05:37:18;14.80;;;2.23;;
18776;SDS011;9517;51.174;4.160;2023-09-19T05:39:45;12.07;;;2.27;;
18776;SDS011;9517;51.174;4.160;2023-09-19T05:42:12;21.63;;;3.10;;
18776;SDS011;9517;51.174;4.160;2023-09-19T05:44:41;15.07;;;1.90;;
18776;SDS011;9517;51.174;4.160;2023-09-19T05:47:08;9.83;;;2.07;;
18776;SDS011;9517;51.174;4.160;2023-09-19T05:49:36;15.97;;;2.97;;
18776;SDS011;9517;51.174;4.160;2023-09-19T05:52:04;11.70;;;2.13;;
18776;SDS011;9517;51.174;4.160;2023-09-19T05:54:32;14.37;;;2.40;;
18776;SDS011;9517;51.174;4.160;2023-09-19T05:57:00;14.93;;;2.30;;
18776;SDS011;9517;51.174;4.160;2023-09-19T05:59:28;11.97;;;2.00;;
18776;SDS011;9517;51.174;4.160;2023-09-19T06:01:57;10.57;;;2.20;;
18776;SDS011;9517;51.174;4.160;2023-09-19T06:04:24;14.30;;;2.70;;
18776;SDS011;9517;51.174;4.160;2023-09-19T06:06:55;15.30;;;2.33;;
18776;SDS011;9517;51.174;4.160;2023-09-19T06:09:23;12.07;;;1.73;;
18776;SDS011;9517;51.174;4.160;2023-09-19T06:11:53;11.33;;;2.03;;
18776;SDS011;9517;51.174;4.160;2023-09-19T06:14:22;14.73;;;2.23;;
18776;SDS011;9517;51.174;4.160;2023-09-19T06:16:49;14.23;;;2.77;;
18776;SDS011;9517;51.174;4.160;2023-09-19T06:19:20;14.77;;;2.23;;
18776;SDS011;9517;51.174;4.160;2023-09-19T06:21:51;14.97;;;2.50;;
18776;SDS011;9517;51.174;4.160;2023-09-19T06:24:19;13.47;;;2.77;;
18776;SDS011;9517;51.174;4.160;2023-09-19T06:26:46;13.70;;;2.13;;
18776;SDS011;9517;51.174;4.160;2023-09-19T06:29:14;14.27;;;2.60;;
18776;SDS011;9517;51.174;4.160;2023-09-19T06:31:41;13.67;;;2.63;;
18776;SDS011;9517;51.174;4.160;2023-09-19T06:34:09;11.63;;;2.07;;
18776;SDS011;9517;51.174;4.160;2023-09-19T06:36:38;14.07;;;2.17;;
18776;SDS011;9517;51.174;4.160;2023-09-19T06:39:06;13.27;;;2.23;;
18776;SDS011;9517;51.174;4.160;2023-09-19T06:41:36;12.23;;;2.30;;
18776;SDS011;9517;51.174;4.160;2023-09-19T06:44:03;14.07;;;2.60;;
18776;SDS011;9517;51.174;4.160;2023-09-19T06:46:32;12.47;;;2.73;;
18776;SDS011;9517;51.174;4.160;2023-09-19T06:49:00;14.70;;;2.17;;
18776;SDS011;9517;51.174;4.160;2023-09-19T06:51:31;15.10;;;1.93;;
18776;SDS011;9517;51.174;4.160;2023-09-19T06:54:01;14.70;;;2.13;;
18776;SDS011;9517;51.174;4.160;2023-09-19T06:56:30;12.13;;;2.30;;
18776;SDS011;9517;51.174;4.160;2023-09-19T06:58:58;11.90;;;2.17;;
18776;SDS011;9517;51.174;4.160;2023-09-19T07:01:25;14.40;;;1.93;;
18776;SDS011;9517;51.174;4.160;2023-09-19T07:03:52;15.53;;;2.23;;
18776;SDS011;9517;51.174;4.160;2023-09-19T07:06:20;18.67;;;3.00;;
18776;SDS011;9517;51.174;4.160;2023-09-19T07:08:47;16.17;;;1.70;;
18776;SDS011;9517;51.174;4.160;2023-09-19T07:11:17;19.17;;;2.67;;
18776;SDS011;9517;51.174;4.160;2023-09-19T07:13:44;14.33;;;2.10;;
18776;SDS011;9517;51.174;4.160;2023-09-19T07:16:12;11.80;;;2.40;;
18776;SDS011;9517;51.174;4.160;2023-09-19T07:18:52;10.03;;;2.00;;
18776;SDS011;9517;51.174;4.160;2023-09-19T07:21:20;13.40;;;2.17;;
18776;SDS011;9517;51.174;4.160;2023-09-19T07:23:47;13.80;;;2.53;;
18776;SDS011;9517;51.174;4.160;2023-09-19T07:26:14;11.87;;;1.57;;
18776;SDS011;9517;51.174;4.160;2023-09-19T07:28:43;13.00;;;2.03;;
18776;SDS011;9517;51.174;4.160;2023-09-19T07:31:10;14.17;;;2.17;;
18776;SDS011;9517;51.174;4.160;2023-09-19T07:33:39;12.83;;;1.93;;
18776;SDS011;9517;51.174;4.160;2023-09-19T07:36:09;9.47;;;1.57;;
18776;SDS011;9517;51.174;4.160;2023-09-19T07:38:38;13.53;;;1.83;;
18776;SDS011;9517;51.174;4.160;2023-09-19T07:41:06;18.57;;;3.17;;
18776;SDS011;9517;51.174;4.160;2023-09-19T07:43:35;11.83;;;1.97;;
18776;SDS011;9517;51.174;4.160;2023-09-19T07:46:04;13.50;;;2.13;;
18776;SDS011;9517;51.174;4.160;2023-09-19T07:48:34;11.50;;;1.50;;
18776;SDS011;9517;51.174;4.160;2023-09-19T07:51:03;12.40;;;2.00;;
18776;SDS011;9517;51.174;4.160;2023-09-19T07:53:31;7.27;;;1.90;;
18776;SDS011;9517;51.174;4.160;2023-09-19T07:56:03;15.53;;;2.20;;
18776;SDS011;9517;51.174;4.160;2023-09-19T07:58:31;8.13;;;2.00;;
18776;SDS011;9517;51.174;4.160;2023-09-19T08:01:04;11.73;;;2.10;;
18776;SDS011;9517;51.174;4.160;2023-09-19T08:03:32;14.13;;;1.93;;
18776;SDS011;9517;51.174;4.160;2023-09-19T08:05:59;11.87;;;2.40;;
18776;SDS011;9517;51.174;4.160;2023-09-19T08:08:27;11.23;;;1.70;;
18776;SDS011;9517;51.174;4.160;2023-09-19T08:10:54;12.50;;;1.97;;
18776;SDS011;9517;51.174;4.160;2023-09-19T08:13:22;9.77;;;1.70;;
18776;SDS011;9517;51.174;4.160;2023-09-19T08:15:50;11.80;;;1.63;;
18776;SDS011;9517;51.174;4.160;2023-09-19T08:18:19;11.67;;;1.90;;
18776;SDS011;9517;51.174;4.160;2023-09-19T08:20:51;9.83;;;1.50;;
18776;SDS011;9517;51.174;4.160;2023-09-19T08:23:19;14.03;;;2.17;;
18776;SDS011;9517;51.174;4.160;2023-09-19T08:25:46;13.00;;;2.13;;
18776;SDS011;9517;51.174;4.160;2023-09-19T08:28:13;11.20;;;1.97;;
18776;SDS011;9517;51.174;4.160;2023-09-19T08:30:44;13.87;;;1.60;;
18776;SDS011;9517;51.174;4.160;2023-09-19T08:33:11;14.23;;;1.67;;
18776;SDS011;9517;51.174;4.160;2023-09-19T08:35:41;12.27;;;1.70;;
18776;SDS011;9517;51.174;4.160;2023-09-19T08:38:10;11.77;;;1.83;;
18776;SDS011;9517;51.174;4.160;2023-09-19T08:40:39;10.50;;;1.43;;
18776;SDS011;9517;51.174;4.160;2023-09-19T08:43:07;12.50;;;2.07;;
18776;SDS011;9517;51.174;4.160;2023-09-19T08:45:35;20.33;;;2.57;;
18776;SDS011;9517;51.174;4.160;2023-09-19T08:48:11;13.47;;;1.83;;
18776;SDS011;9517;51.174;4.160;2023-09-19T08:50:51;7.00;;;1.43;;
18776;SDS011;9517;51.174;4.160;2023-09-19T08:53:25;12.80;;;1.80;;
18776;SDS011;9517;51.174;4.160;2023-09-19T08:55:55;17.10;;;2.30;;
18776;SDS011;9517;51.174;4.160;2023-09-19T08:58:24;13.17;;;1.57;;
18776;SDS011;9517;51.174;4.160;2023-09-19T09:00:58;9.47;;;1.97;;
18776;SDS011;9517;51.174;4.160;2023-09-19T09:03:26;13.73;;;1.77;;
18776;SDS011;9517;51.174;4.160;2023-09-19T09:06:01;10.60;;;2.27;;
18776;SDS011;9517;51.174;4.160;2023-09-19T09:08:29;10.57;;;1.83;;
18776;SDS011;9517;51.174;4.160;2023-09-19T09:10:58;12.03;;;1.90;;
18776;SDS011;9517;51.174;4.160;2023-09-19T09:13:26;13.90;;;1.63;;
18776;SDS011;9517;51.174;4.160;2023-09-19T09:15:53;10.23;;;1.80;;
18776;SDS011;9517;51.174;4.160;2023-09-19T09:18:21;16.23;;;2.20;;
18776;SDS011;9517;51.174;4.160;2023-09-19T09:20:49;9.77;;;1.23;;
18776;SDS011;9517;51.174;4.160;2023-09-19T09:23:17;11.30;;;1.83;;
18776;SDS011;9517;51.174;4.160;2023-09-19T09:25:48;10.93;;;1.10;;
18776;SDS011;9517;51.174;4.160;2023-09-19T09:28:22;9.47;;;1.20;;
18776;SDS011;9517;51.174;4.160;2023-09-19T09:30:51;6.03;;;1.30;;
18776;SDS011;9517;51.174;4.160;2023-09-19T09:33:19;12.33;;;2.03;;
18776;SDS011;9517;51.174;4.160;2023-09-19T09:35:50;10.17;;;1.80;;
18776;SDS011;9517;51.174;4.160;2023-09-19T09:38:20;10.50;;;1.73;;
18776;SDS011;9517;51.174;4.160;2023-09-19T09:40:51;10.67;;;1.63;;
18776;SDS011;9517;51.174;4.160;2023-09-19T09:43:27;7.53;;;1.67;;
18776;SDS011;9517;51.174;4.160;2023-09-19T09:46:13;9.57;;;1.83;;
18776;SDS011;9517;51.174;4.160;2023-09-19T09:49:10;6.60;;;1.50;;
18776;SDS011;9517;51.174;4.160;2023-09-19T09:51:50;8.63;;;1.50;;
18776;SDS011;9517;51.174;4.160;2023-09-19T09:54:32;5.87;;;1.47;;
18776;SDS011;9517;51.174;4.160;2023-09-19T09:57:02;14.10;;;1.83;;
18776;SDS011;9517;51.174;4.160;2023-09-19T09:59:45;11.57;;;1.33;;
18776;SDS011;9517;51.174;4.160;2023-09-19T10:02:15;6.97;;;1.40;;
18776;SDS011;9517;51.174;4.160;2023-09-19T10:04:50;6.53;;;1.40;;
18776;SDS011;9517;51.174;4.160;2023-09-19T10:07:33;7.13;;;2.17;;
18776;SDS011;9517;51.174;4.160;2023-09-19T10:10:05;8.40;;;1.10;;
18776;SDS011;9517;51.174;4.160;2023-09-19T10:12:42;7.07;;;1.67;;
18776;SDS011;9517;51.174;4.160;2023-09-19T10:15:13;8.47;;;1.30;;
18776;SDS011;9517;51.174;4.160;2023-09-19T10:17:42;7.47;;;1.53;;
18776;SDS011;9517;51.174;4.160;2023-09-19T10:20:14;11.10;;;1.53;;
18776;SDS011;9517;51.174;4.160;2023-09-19T10:22:49;8.80;;;1.00;;
18776;SDS011;9517;51.174;4.160;2023-09-19T10:25:25;8.90;;;1.30;;
18776;SDS011;9517;51.174;4.160;2023-09-19T10:27:55;6.27;;;0.93;;
18776;SDS011;9517;51.174;4.160;2023-09-19T10:30:26;8.53;;;1.20;;
18776;SDS011;9517;51.174;4.160;2023-09-19T10:32:57;7.50;;;0.90;;
18776;SDS011;9517;51.174;4.160;2023-09-19T10:35:27;5.63;;;1.07;;
18776;SDS011;9517;51.174;4.160;2023-09-19T10:37:56;7.17;;;1.77;;
18776;SDS011;9517;51.174;4.160;2023-09-19T10:40:28;9.33;;;1.10;;
18776;SDS011;9517;51.174;4.160;2023-09-19T10:42:59;5.43;;;0.90;;
18776;SDS011;9517;51.174;4.160;2023-09-19T10:45:30;6.50;;;1.00;;
18776;SDS011;9517;51.174;4.160;2023-09-19T10:47:58;5.03;;;0.70;;
18776;SDS011;9517;51.174;4.160;2023-09-19T10:50:28;6.27;;;0.90;;
18776;SDS011;9517;51.174;4.160;2023-09-19T10:53:00;2.10;;;0.57;;
18776;SDS011;9517;51.174;4.160;2023-09-19T10:55:34;3.43;;;0.70;;
18776;SDS011;9517;51.174;4.160;2023-09-19T10:58:02;5.33;;;0.90;;
18776;SDS011;9517;51.174;4.160;2023-09-19T11:00:52;6.40;;;1.10;;
18776;SDS011;9517;51.174;4.160;2023-09-19T11:03:21;6.73;;;1.00;;
18776;SDS011;9517;51.174;4.160;2023-09-19T11:06:05;4.40;;;0.80;;
18776;SDS011;9517;51.174;4.160;2023-09-19T11:08:50;8.00;;;1.10;;
18776;SDS011;9517;51.174;4.160;2023-09-19T11:11:40;7.43;;;1.03;;
18776;SDS011;9517;51.174;4.160;2023-09-19T11:14:30;6.97;;;0.87;;
18776;SDS011;9517;51.174;4.160;2023-09-19T11:23:23;5.77;;;0.73;;
18776;SDS011;9517;51.174;4.160;2023-09-19T11:25:51;3.50;;;0.70;;
18776;SDS011;9517;51.174;4.160;2023-09-19T11:34:39;3.87;;;0.70;;
18776;SDS011;9517;51.174;4.160;2023-09-19T11:40:40;6.00;;;0.70;;
18776;SDS011;9517;51.174;4.160;2023-09-19T11:43:30;4.27;;;0.67;;
18776;SDS011;9517;51.174;4.160;2023-09-19T11:46:04;3.83;;;0.70;;
18776;SDS011;9517;51.174;4.160;2023-09-19T11:48:32;2.43;;;0.63;;
18776;SDS011;9517;51.174;4.160;2023-09-19T11:51:13;5.30;;;0.70;;
18776;SDS011;9517;51.174;4.160;2023-09-19T11:53:52;8.50;;;0.90;;
18776;SDS011;9517;51.174;4.160;2023-09-19T11:56:20;5.03;;;0.60;;
18776;SDS011;9517;51.174;4.160;2023-09-19T11:58:49;4.60;;;0.80;;
18776;SDS011;9517;51.174;4.160;2023-09-19T12:01:23;5.33;;;0.97;;
18776;SDS011;9517;51.174;4.160;2023-09-19T12:03:54;6.07;;;0.90;;
18776;SDS011;9517;51.174;4.160;2023-09-19T12:06:23;4.57;;;0.80;;
18776;SDS011;9517;51.174;4.160;2023-09-19T12:08:51;5.20;;;0.97;;
18776;SDS011;9517;51.174;4.160;2023-09-19T12:11:19;3.87;;;0.80;;
18776;SDS011;9517;51.174;4.160;2023-09-19T12:13:48;4.17;;;0.70;;
18776;SDS011;9517;51.174;4.160;2023-09-19T12:16:17;4.00;;;0.80;;
18776;SDS011;9517;51.174;4.160;2023-09-19T12:18:48;6.60;;;0.80;;
18776;SDS011;9517;51.174;4.160;2023-09-19T12:21:23;4.37;;;0.90;;
18776;SDS011;9517;51.174;4.160;2023-09-19T12:23:59;3.60;;;0.80;;
18776;SDS011;9517;51.174;4.160;2023-09-19T12:26:39;6.27;;;1.00;;
18776;SDS011;9517;51.174;4.160;2023-09-19T12:29:12;3.40;;;0.70;;
18776;SDS011;9517;51.174;4.160;2023-09-19T12:31:49;5.30;;;1.00;;
18776;SDS011;9517;51.174;4.160;2023-09-19T12:34:21;3.40;;;0.80;;
18776;SDS011;9517;51.174;4.160;2023-09-19T12:37:03;5.13;;;0.97;;
18776;SDS011;9517;51.174;4.160;2023-09-19T12:39:36;6.50;;;0.83;;
18776;SDS011;9517;51.174;4.160;2023-09-19T12:42:08;5.93;;;0.83;;
18776;SDS011;9517;51.174;4.160;2023-09-19T12:44:40;3.33;;;0.70;;
18776;SDS011;9517;51.174;4.160;2023-09-19T12:47:10;4.20;;;0.70;;
18776;SDS011;9517;51.174;4.160;2023-09-19T12:52:38;6.07;;;1.10;;
18776;SDS011;9517;51.174;4.160;2023-09-19T12:55:07;5.80;;;0.90;;
18776;SDS011;9517;51.174;4.160;2023-09-19T12:57:36;7.70;;;1.07;;
18776;SDS011;9517;51.174;4.160;2023-09-19T13:00:04;4.57;;;0.90;;
18776;SDS011;9517;51.174;4.160;2023-09-19T13:02:36;6.17;;;1.10;;
18776;SDS011;9517;51.174;4.160;2023-09-19T13:05:03;5.57;;;1.10;;
18776;SDS011;9517;51.174;4.160;2023-09-19T13:07:43;5.50;;;0.70;;
18776;SDS011;9517;51.174;4.160;2023-09-19T13:10:11;5.40;;;1.00;;
18776;SDS011;9517;51.174;4.160;2023-09-19T13:12:41;5.27;;;0.97;;
18776;SDS011;9517;51.174;4.160;2023-09-19T13:15:12;4.10;;;0.77;;
18776;SDS011;9517;51.174;4.160;2023-09-19T13:17:44;6.27;;;1.00;;
18776;SDS011;9517;51.174;4.160;2023-09-19T13:20:22;7.30;;;1.13;;
18776;SDS011;9517;51.174;4.160;2023-09-19T13:22:54;6.30;;;0.87;;
18776;SDS011;9517;51.174;4.160;2023-09-19T13:25:25;6.23;;;1.03;;
18776;SDS011;9517;51.174;4.160;2023-09-19T13:27:55;4.37;;;0.87;;
18776;SDS011;9517;51.174;4.160;2023-09-19T13:30:25;5.23;;;0.80;;
18776;SDS011;9517;51.174;4.160;2023-09-19T13:33:04;5.10;;;1.20;;
18776;SDS011;9517;51.174;4.160;2023-09-19T13:35:32;5.70;;;1.23;;
18776;SDS011;9517;51.174;4.160;2023-09-19T13:38:01;8.03;;;1.57;;
18776;SDS011;9517;51.174;4.160;2023-09-19T13:40:28;5.10;;;0.93;;
18776;SDS011;9517;51.174;4.160;2023-09-19T13:43:00;6.47;;;1.00;;
18776;SDS011;9517;51.174;4.160;2023-09-19T13:45:27;6.10;;;1.07;;
18776;SDS011;9517;51.174;4.160;2023-09-19T13:47:55;8.13;;;1.00;;
18776;SDS011;9517;51.174;4.160;2023-09-19T13:50:22;7.77;;;1.20;;
18776;SDS011;9517;51.174;4.160;2023-09-19T13:52:50;7.53;;;1.77;;
18776;SDS011;9517;51.174;4.160;2023-09-19T13:55:19;6.33;;;1.20;;
18776;SDS011;9517;51.174;4.160;2023-09-19T13:57:46;8.50;;;1.43;;
18776;SDS011;9517;51.174;4.160;2023-09-19T14:00:15;4.83;;;0.93;;
18776;SDS011;9517;51.174;4.160;2023-09-19T14:02:43;8.20;;;1.30;;
18776;SDS011;9517;51.174;4.160;2023-09-19T14:05:11;6.03;;;1.00;;
18776;SDS011;9517;51.174;4.160;2023-09-19T14:07:40;4.60;;;1.03;;
18776;SDS011;9517;51.174;4.160;2023-09-19T14:10:08;8.77;;;1.27;;
18776;SDS011;9517;51.174;4.160;2023-09-19T14:12:38;5.73;;;1.03;;
18776;SDS011;9517;51.174;4.160;2023-09-19T14:15:06;5.40;;;1.27;;
18776;SDS011;9517;51.174;4.160;2023-09-19T14:17:34;6.53;;;1.00;;
18776;SDS011;9517;51.174;4.160;2023-09-19T14:20:01;6.60;;;1.23;;
18776;SDS011;9517;51.174;4.160;2023-09-19T14:22:31;7.07;;;1.03;;
18776;SDS011;9517;51.174;4.160;2023-09-19T14:24:58;6.13;;;1.07;;
18776;SDS011;9517;51.174;4.160;2023-09-19T14:27:25;6.47;;;1.50;;
18776;SDS011;9517;51.174;4.160;2023-09-19T14:29:54;6.43;;;1.17;;
18776;SDS011;9517;51.174;4.160;2023-09-19T14:32:22;3.63;;;1.13;;
18776;SDS011;9517;51.174;4.160;2023-09-19T14:34:49;6.13;;;0.97;;
18776;SDS011;9517;51.174;4.160;2023-09-19T14:37:16;11.60;;;1.50;;
18776;SDS011;9517;51.174;4.160;2023-09-19T14:39:46;6.27;;;1.20;;
18776;SDS011;9517;51.174;4.160;2023-09-19T14:42:13;5.20;;;1.10;;
18776;SDS011;9517;51.174;4.160;2023-09-19T14:44:42;8.37;;;1.17;;
18776;SDS011;9517;51.174;4.160;2023-09-19T14:47:11;6.77;;;1.10;;
18776;SDS011;9517;51.174;4.160;2023-09-19T14:49:38;8.60;;;1.00;;
18776;SDS011;9517;51.174;4.160;2023-09-19T14:52:06;8.83;;;1.53;;
18776;SDS011;9517;51.174;4.160;2023-09-19T14:54:34;5.40;;;0.97;;
18776;SDS011;9517;51.174;4.160;2023-09-19T14:57:03;6.97;;;1.37;;
18776;SDS011;9517;51.174;4.160;2023-09-19T14:59:30;12.27;;;1.60;;
18776;SDS011;9517;51.174;4.160;2023-09-19T15:01:58;7.40;;;1.20;;
18776;SDS011;9517;51.174;4.160;2023-09-19T15:04:27;5.83;;;1.40;;
18776;SDS011;9517;51.174;4.160;2023-09-19T15:06:55;10.33;;;1.30;;
18776;SDS011;9517;51.174;4.160;2023-09-19T15:09:23;6.17;;;1.20;;
18776;SDS011;9517;51.174;4.160;2023-09-19T15:11:51;7.27;;;1.40;;
18776;SDS011;9517;51.174;4.160;2023-09-19T15:14:19;8.47;;;2.00;;
18776;SDS011;9517;51.174;4.160;2023-09-19T15:16:47;10.87;;;1.50;;
18776;SDS011;9517;51.174;4.160;2023-09-19T15:19:14;9.87;;;1.60;;
18776;SDS011;9517;51.174;4.160;2023-09-19T15:21:44;6.77;;;1.30;;
18776;SDS011;9517;51.174;4.160;2023-09-19T15:24:11;7.07;;;1.53;;
18776;SDS011;9517;51.174;4.160;2023-09-19T15:26:38;7.70;;;1.50;;
18776;SDS011;9517;51.174;4.160;2023-09-19T15:29:06;6.27;;;1.50;;
18776;SDS011;9517;51.174;4.160;2023-09-19T15:31:34;10.17;;;1.83;;
18776;SDS011;9517;51.174;4.160;2023-09-19T15:34:03;5.13;;;1.50;;
18776;SDS011;9517;51.174;4.160;2023-09-19T15:36:33;9.40;;;1.37;;